sensor_id;sensor_type;location;lat;lon;timestamp;temperature;humidity
74155;DHT22;62509;46.248;6.018;2023-08-06T00:03:32;17.90;45.70
74155;DHT22;62509;46.248;6.018;2023-08-06T00:08:35;17.90;44.60
74155;DHT22;62509;46.248;6.018;2023-08-06T00:13:38;17.70;46.00
74155;DHT22;62509;46.248;6.018;2023-08-06T00:18:43;17.70;46.20
74155;DHT22;62509;46.248;6.018;2023-08-06T00:23:46;17.70;47.00
74155;DHT22;62509;46.248;6.018;2023-08-06T00:28:49;17.70;47.10
74155;DHT22;62509;46.248;6.018;2023-08-06T00:33:54;17.60;47.70
74155;DHT22;62509;46.248;6.018;2023-08-06T00:38:58;17.60;47.10
74155;DHT22;62509;46.248;6.018;2023-08-06T00:44:01;17.80;44.40
74155;DHT22;62509;46.248;6.018;2023-08-06T00:49:06;17.80;44.20
74155;DHT22;62509;46.248;6.018;2023-08-06T00:54:09;17.80;47.50
74155;DHT22;62509;46.248;6.018;2023-08-06T00:59:13;17.40;51.30
74155;DHT22;62509;46.248;6.018;2023-08-06T01:04:17;17.20;51.50
74155;DHT22;62509;46.248;6.018;2023-08-06T01:09:25;17.10;52.90
74155;DHT22;62509;46.248;6.018;2023-08-06T01:14:47;17.00;53.90
74155;DHT22;62509;46.248;6.018;2023-08-06T01:19:55;17.00;54.20
74155;DHT22;62509;46.248;6.018;2023-08-06T01:25:00;16.90;57.30
74155;DHT22;62509;46.248;6.018;2023-08-06T01:30:05;16.70;60.00
74155;DHT22;62509;46.248;6.018;2023-08-06T01:35:14;16.70;60.80
74155;DHT22;62509;46.248;6.018;2023-08-06T01:40:19;16.60;60.00
74155;DHT22;62509;46.248;6.018;2023-08-06T01:45:23;16.60;60.10
74155;DHT22;62509;46.248;6.018;2023-08-06T01:50:26;16.50;60.20
74155;DHT22;62509;46.248;6.018;2023-08-06T01:55:31;16.50;59.00
74155;DHT22;62509;46.248;6.018;2023-08-06T02:00:34;16.40;58.30
74155;DHT22;62509;46.248;6.018;2023-08-06T02:05:37;16.60;58.00
74155;DHT22;62509;46.248;6.018;2023-08-06T02:10:42;16.60;56.30
74155;DHT22;62509;46.248;6.018;2023-08-06T02:15:45;16.60;56.10
74155;DHT22;62509;46.248;6.018;2023-08-06T02:20:56;16.60;55.50
74155;DHT22;62509;46.248;6.018;2023-08-06T02:26:02;16.60;56.50
74155;DHT22;62509;46.248;6.018;2023-08-06T02:31:07;16.50;56.70
74155;DHT22;62509;46.248;6.018;2023-08-06T02:36:10;16.50;55.70
74155;DHT22;62509;46.248;6.018;2023-08-06T02:41:15;16.60;56.60
74155;DHT22;62509;46.248;6.018;2023-08-06T02:46:18;16.50;59.30
74155;DHT22;62509;46.248;6.018;2023-08-06T02:51:21;16.40;60.80
74155;DHT22;62509;46.248;6.018;2023-08-06T02:56:26;16.40;59.60
74155;DHT22;62509;46.248;6.018;2023-08-06T03:01:29;16.40;59.80
74155;DHT22;62509;46.248;6.018;2023-08-06T03:06:32;16.40;60.70
74155;DHT22;62509;46.248;6.018;2023-08-06T03:11:37;16.40;58.30
74155;DHT22;62509;46.248;6.018;2023-08-06T03:16:40;16.40;58.70
74155;DHT22;62509;46.248;6.018;2023-08-06T03:21:44;16.30;58.70
74155;DHT22;62509;46.248;6.018;2023-08-06T03:26:48;16.40;57.30
74155;DHT22;62509;46.248;6.018;2023-08-06T03:31:51;16.20;59.70
74155;DHT22;62509;46.248;6.018;2023-08-06T03:36:55;16.10;64.00
74155;DHT22;62509;46.248;6.018;2023-08-06T03:41:59;15.90;62.50
74155;DHT22;62509;46.248;6.018;2023-08-06T03:47:04;15.70;62.90
74155;DHT22;62509;46.248;6.018;2023-08-06T03:52:08;15.80;60.90
74155;DHT22;62509;46.248;6.018;2023-08-06T03:57:13;15.90;62.90
74155;DHT22;62509;46.248;6.018;2023-08-06T04:02:16;15.90;62.50
74155;DHT22;62509;46.248;6.018;2023-08-06T04:07:19;15.80;62.10
74155;DHT22;62509;46.248;6.018;2023-08-06T04:12:24;15.70;58.90
74155;DHT22;62509;46.248;6.018;2023-08-06T04:17:27;15.80;57.60
74155;DHT22;62509;46.248;6.018;2023-08-06T04:22:31;15.90;56.70
74155;DHT22;62509;46.248;6.018;2023-08-06T04:27:35;15.80;56.10
74155;DHT22;62509;46.248;6.018;2023-08-06T04:32:43;15.70;57.70
74155;DHT22;62509;46.248;6.018;2023-08-06T04:37:46;15.70;57.10
74155;DHT22;62509;46.248;6.018;2023-08-06T04:42:50;15.60;59.00
74155;DHT22;62509;46.248;6.018;2023-08-06T04:47:54;15.20;61.80
74155;DHT22;62509;46.248;6.018;2023-08-06T04:52:57;15.30;61.50
74155;DHT22;62509;46.248;6.018;2023-08-06T04:58:02;15.40;60.40
74155;DHT22;62509;46.248;6.018;2023-08-06T05:03:05;15.30;60.70
74155;DHT22;62509;46.248;6.018;2023-08-06T05:08:13;15.10;64.20
74155;DHT22;62509;46.248;6.018;2023-08-06T05:13:19;14.90;68.40
74155;DHT22;62509;46.248;6.018;2023-08-06T05:18:22;15.00;68.70
74155;DHT22;62509;46.248;6.018;2023-08-06T05:23:25;15.20;63.00
74155;DHT22;62509;46.248;6.018;2023-08-06T05:28:30;15.50;56.40
74155;DHT22;62509;46.248;6.018;2023-08-06T05:33:33;15.70;53.10
74155;DHT22;62509;46.248;6.018;2023-08-06T05:38:37;16.00;52.00
74155;DHT22;62509;46.248;6.018;2023-08-06T05:43:41;16.30;48.70
74155;DHT22;62509;46.248;6.018;2023-08-06T05:48:44;16.80;46.10
74155;DHT22;62509;46.248;6.018;2023-08-06T05:53:48;18.50;43.30
74155;DHT22;62509;46.248;6.018;2023-08-06T05:58:53;18.60;41.90
74155;DHT22;62509;46.248;6.018;2023-08-06T06:03:56;19.60;39.60
74155;DHT22;62509;46.248;6.018;2023-08-06T06:09:00;20.80;34.90
74155;DHT22;62509;46.248;6.018;2023-08-06T06:14:04;18.10;40.90
74155;DHT22;62509;46.248;6.018;2023-08-06T06:19:08;17.20;42.80
74155;DHT22;62509;46.248;6.018;2023-08-06T06:24:11;17.50;45.20
74155;DHT22;62509;46.248;6.018;2023-08-06T06:29:16;18.10;40.40
74155;DHT22;62509;46.248;6.018;2023-08-06T06:34:19;18.20;41.10
74155;DHT22;62509;46.248;6.018;2023-08-06T06:39:22;17.40;43.80
74155;DHT22;62509;46.248;6.018;2023-08-06T06:44:27;17.00;48.10
74155;DHT22;62509;46.248;6.018;2023-08-06T06:49:30;16.70;50.90
74155;DHT22;62509;46.248;6.018;2023-08-06T06:54:34;16.60;51.80
74155;DHT22;62509;46.248;6.018;2023-08-06T06:59:38;16.50;51.30
74155;DHT22;62509;46.248;6.018;2023-08-06T07:04:42;16.30;52.00
74155;DHT22;62509;46.248;6.018;2023-08-06T07:09:45;16.00;53.90
74155;DHT22;62509;46.248;6.018;2023-08-06T07:14:50;16.20;54.30
74155;DHT22;62509;46.248;6.018;2023-08-06T07:19:53;16.40;53.30
74155;DHT22;62509;46.248;6.018;2023-08-06T07:24:56;16.40;51.60
74155;DHT22;62509;46.248;6.018;2023-08-06T07:30:01;16.20;51.70
74155;DHT22;62509;46.248;6.018;2023-08-06T07:35:05;16.00;52.00
74155;DHT22;62509;46.248;6.018;2023-08-06T07:40:10;16.00;52.20
74155;DHT22;62509;46.248;6.018;2023-08-06T07:45:17;16.00;51.70
74155;DHT22;62509;46.248;6.018;2023-08-06T07:50:20;16.00;52.70
74155;DHT22;62509;46.248;6.018;2023-08-06T07:55:23;15.90;53.00
74155;DHT22;62509;46.248;6.018;2023-08-06T08:00:28;16.00;52.40
74155;DHT22;62509;46.248;6.018;2023-08-06T08:05:31;16.20;50.70
74155;DHT22;62509;46.248;6.018;2023-08-06T08:10:35;16.30;50.30
74155;DHT22;62509;46.248;6.018;2023-08-06T08:15:41;16.50;49.40
74155;DHT22;62509;46.248;6.018;2023-08-06T08:20:44;16.60;48.10
74155;DHT22;62509;46.248;6.018;2023-08-06T08:25:48;16.60;48.70
74155;DHT22;62509;46.248;6.018;2023-08-06T08:30:52;16.50;49.40
74155;DHT22;62509;46.248;6.018;2023-08-06T08:35:56;16.60;48.20
74155;DHT22;62509;46.248;6.018;2023-08-06T08:40:59;16.70;47.80
74155;DHT22;62509;46.248;6.018;2023-08-06T08:46:04;16.80;46.70
74155;DHT22;62509;46.248;6.018;2023-08-06T08:51:08;16.40;49.50
74155;DHT22;62509;46.248;6.018;2023-08-06T08:56:15;16.40;49.10
74155;DHT22;62509;46.248;6.018;2023-08-06T09:01:22;16.40;49.60
74155;DHT22;62509;46.248;6.018;2023-08-06T09:06:26;16.20;53.50
74155;DHT22;62509;46.248;6.018;2023-08-06T09:11:31;16.40;55.70
74155;DHT22;62509;46.248;6.018;2023-08-06T09:16:47;16.50;56.30
74155;DHT22;62509;46.248;6.018;2023-08-06T09:21:51;16.90;56.20
74155;DHT22;62509;46.248;6.018;2023-08-06T09:26:56;16.90;51.20
74155;DHT22;62509;46.248;6.018;2023-08-06T09:32:01;16.60;55.00
74155;DHT22;62509;46.248;6.018;2023-08-06T09:37:05;16.60;53.40
74155;DHT22;62509;46.248;6.018;2023-08-06T09:42:14;16.90;52.70
74155;DHT22;62509;46.248;6.018;2023-08-06T09:47:19;16.90;51.50
74155;DHT22;62509;46.248;6.018;2023-08-06T09:52:24;17.20;50.50
74155;DHT22;62509;46.248;6.018;2023-08-06T09:57:27;17.20;48.70
74155;DHT22;62509;46.248;6.018;2023-08-06T10:02:32;17.10;48.40
74155;DHT22;62509;46.248;6.018;2023-08-06T10:07:37;17.10;46.80
74155;DHT22;62509;46.248;6.018;2023-08-06T10:12:43;17.10;47.70
74155;DHT22;62509;46.248;6.018;2023-08-06T10:17:51;17.00;47.20
74155;DHT22;62509;46.248;6.018;2023-08-06T10:22:59;16.90;49.30
74155;DHT22;62509;46.248;6.018;2023-08-06T10:28:07;16.70;50.60
74155;DHT22;62509;46.248;6.018;2023-08-06T10:33:13;16.80;53.30
74155;DHT22;62509;46.248;6.018;2023-08-06T10:38:18;17.00;53.50
74155;DHT22;62509;46.248;6.018;2023-08-06T10:43:26;17.00;53.70
74155;DHT22;62509;46.248;6.018;2023-08-06T10:48:33;17.80;52.00
74155;DHT22;62509;46.248;6.018;2023-08-06T10:53:38;18.40;51.90
74155;DHT22;62509;46.248;6.018;2023-08-06T10:58:45;18.40;48.90
74155;DHT22;62509;46.248;6.018;2023-08-06T11:03:51;18.20;46.40
74155;DHT22;62509;46.248;6.018;2023-08-06T11:08:55;18.70;43.80
74155;DHT22;62509;46.248;6.018;2023-08-06T11:13:58;19.10;41.80
74155;DHT22;62509;46.248;6.018;2023-08-06T11:19:03;18.90;41.20
74155;DHT22;62509;46.248;6.018;2023-08-06T11:24:06;19.10;39.70
74155;DHT22;62509;46.248;6.018;2023-08-06T11:29:10;18.80;41.30
74155;DHT22;62509;46.248;6.018;2023-08-06T11:34:14;18.60;42.80
74155;DHT22;62509;46.248;6.018;2023-08-06T11:39:18;18.20;47.30
74155;DHT22;62509;46.248;6.018;2023-08-06T11:44:21;17.90;48.20
74155;DHT22;62509;46.248;6.018;2023-08-06T11:49:41;17.70;48.90
74155;DHT22;62509;46.248;6.018;2023-08-06T11:54:47;17.70;47.30
74155;DHT22;62509;46.248;6.018;2023-08-06T11:59:51;17.90;42.50
74155;DHT22;62509;46.248;6.018;2023-08-06T12:04:59;17.80;45.70
74155;DHT22;62509;46.248;6.018;2023-08-06T12:10:04;18.00;45.90
74155;DHT22;62509;46.248;6.018;2023-08-06T12:15:08;18.10;44.20
74155;DHT22;62509;46.248;6.018;2023-08-06T12:20:13;18.70;40.90
74155;DHT22;62509;46.248;6.018;2023-08-06T12:25:17;19.20;40.10
74155;DHT22;62509;46.248;6.018;2023-08-06T12:30:20;19.30;39.00
74155;DHT22;62509;46.248;6.018;2023-08-06T12:35:25;19.40;39.10
74155;DHT22;62509;46.248;6.018;2023-08-06T12:40:28;19.40;37.40
74155;DHT22;62509;46.248;6.018;2023-08-06T12:45:39;19.50;37.00
74155;DHT22;62509;46.248;6.018;2023-08-06T12:50:44;19.30;37.40
74155;DHT22;62509;46.248;6.018;2023-08-06T12:55:47;19.20;39.50
74155;DHT22;62509;46.248;6.018;2023-08-06T13:00:51;19.30;40.60
74155;DHT22;62509;46.248;6.018;2023-08-06T13:05:55;19.40;41.10
74155;DHT22;62509;46.248;6.018;2023-08-06T13:10:59;19.20;42.60
74155;DHT22;62509;46.248;6.018;2023-08-06T13:16:03;18.70;44.30
74155;DHT22;62509;46.248;6.018;2023-08-06T13:21:08;18.60;44.90
74155;DHT22;62509;46.248;6.018;2023-08-06T13:26:11;18.50;48.10
74155;DHT22;62509;46.248;6.018;2023-08-06T13:31:15;18.40;46.30
74155;DHT22;62509;46.248;6.018;2023-08-06T13:36:19;18.50;44.90
74155;DHT22;62509;46.248;6.018;2023-08-06T13:41:23;18.30;45.00
74155;DHT22;62509;46.248;6.018;2023-08-06T13:46:26;18.20;46.50
74155;DHT22;62509;46.248;6.018;2023-08-06T13:51:31;18.20;48.60
74155;DHT22;62509;46.248;6.018;2023-08-06T13:56:35;18.30;47.30
74155;DHT22;62509;46.248;6.018;2023-08-06T14:01:39;18.20;47.20
74155;DHT22;62509;46.248;6.018;2023-08-06T14:06:54;18.40;45.90
74155;DHT22;62509;46.248;6.018;2023-08-06T14:11:58;18.50;40.00
74155;DHT22;62509;46.248;6.018;2023-08-06T14:17:01;18.10;38.90
74155;DHT22;62509;46.248;6.018;2023-08-06T14:22:07;18.20;39.80
74155;DHT22;62509;46.248;6.018;2023-08-06T14:27:11;17.90;41.50
74155;DHT22;62509;46.248;6.018;2023-08-06T14:32:14;17.40;42.30
74155;DHT22;62509;46.248;6.018;2023-08-06T14:37:21;17.60;41.80
74155;DHT22;62509;46.248;6.018;2023-08-06T14:42:24;17.90;42.30
74155;DHT22;62509;46.248;6.018;2023-08-06T14:47:27;17.40;42.30
74155;DHT22;62509;46.248;6.018;2023-08-06T14:52:32;17.70;42.80
74155;DHT22;62509;46.248;6.018;2023-08-06T14:57:35;18.00;41.10
74155;DHT22;62509;46.248;6.018;2023-08-06T15:02:38;18.20;39.90
74155;DHT22;62509;46.248;6.018;2023-08-06T15:07:43;18.00;40.70
74155;DHT22;62509;46.248;6.018;2023-08-06T15:12:46;18.10;39.80
74155;DHT22;62509;46.248;6.018;2023-08-06T15:17:51;18.20;39.30
74155;DHT22;62509;46.248;6.018;2023-08-06T15:22:56;18.20;39.40
74155;DHT22;62509;46.248;6.018;2023-08-06T15:27:59;17.90;38.60
74155;DHT22;62509;46.248;6.018;2023-08-06T15:33:03;18.00;39.70
74155;DHT22;62509;46.248;6.018;2023-08-06T15:38:08;18.30;38.20
74155;DHT22;62509;46.248;6.018;2023-08-06T15:43:11;18.40;36.80
74155;DHT22;62509;46.248;6.018;2023-08-06T15:48:14;18.30;35.70
74155;DHT22;62509;46.248;6.018;2023-08-06T15:53:19;18.10;37.00
74155;DHT22;62509;46.248;6.018;2023-08-06T15:58:22;18.00;38.00
74155;DHT22;62509;46.248;6.018;2023-08-06T16:03:25;18.20;37.50
74155;DHT22;62509;46.248;6.018;2023-08-06T16:08:30;18.20;39.00
74155;DHT22;62509;46.248;6.018;2023-08-06T16:13:33;18.10;37.50
74155;DHT22;62509;46.248;6.018;2023-08-06T16:18:37;17.90;38.60
74155;DHT22;62509;46.248;6.018;2023-08-06T16:23:41;18.00;36.60
74155;DHT22;62509;46.248;6.018;2023-08-06T16:28:45;18.00;37.80
74155;DHT22;62509;46.248;6.018;2023-08-06T16:33:48;18.10;37.60
74155;DHT22;62509;46.248;6.018;2023-08-06T16:38:53;18.30;37.90
74155;DHT22;62509;46.248;6.018;2023-08-06T16:44:01;18.30;35.10
74155;DHT22;62509;46.248;6.018;2023-08-06T16:49:07;18.40;37.00
74155;DHT22;62509;46.248;6.018;2023-08-06T16:54:11;18.10;37.60
74155;DHT22;62509;46.248;6.018;2023-08-06T16:59:15;18.20;36.90
74155;DHT22;62509;46.248;6.018;2023-08-06T17:04:18;18.10;38.30
74155;DHT22;62509;46.248;6.018;2023-08-06T17:09:23;18.40;35.10
74155;DHT22;62509;46.248;6.018;2023-08-06T17:14:26;18.30;35.80
74155;DHT22;62509;46.248;6.018;2023-08-06T17:19:29;18.00;37.10
74155;DHT22;62509;46.248;6.018;2023-08-06T17:24:34;18.40;35.50
74155;DHT22;62509;46.248;6.018;2023-08-06T17:29:37;18.30;35.20
74155;DHT22;62509;46.248;6.018;2023-08-06T17:34:41;18.10;35.80
74155;DHT22;62509;46.248;6.018;2023-08-06T17:39:45;18.20;36.70
74155;DHT22;62509;46.248;6.018;2023-08-06T17:44:49;18.20;36.40
74155;DHT22;62509;46.248;6.018;2023-08-06T17:49:52;18.30;35.50
74155;DHT22;62509;46.248;6.018;2023-08-06T17:54:57;18.50;36.00
74155;DHT22;62509;46.248;6.018;2023-08-06T18:00:00;18.50;36.00
74155;DHT22;62509;46.248;6.018;2023-08-06T18:05:04;18.10;35.80
74155;DHT22;62509;46.248;6.018;2023-08-06T18:10:09;17.90;36.70
74155;DHT22;62509;46.248;6.018;2023-08-06T18:15:12;17.50;36.80
74155;DHT22;62509;46.248;6.018;2023-08-06T18:20:16;17.50;37.50
74155;DHT22;62509;46.248;6.018;2023-08-06T18:25:21;17.30;38.80
74155;DHT22;62509;46.248;6.018;2023-08-06T18:30:24;17.00;41.10
74155;DHT22;62509;46.248;6.018;2023-08-06T18:35:27;17.00;40.90
74155;DHT22;62509;46.248;6.018;2023-08-06T18:40:32;17.10;40.50
74155;DHT22;62509;46.248;6.018;2023-08-06T18:45:35;16.90;41.50
74155;DHT22;62509;46.248;6.018;2023-08-06T18:50:42;16.70;41.40
74155;DHT22;62509;46.248;6.018;2023-08-06T18:55:48;16.60;42.10
74155;DHT22;62509;46.248;6.018;2023-08-06T19:00:55;16.70;43.50
74155;DHT22;62509;46.248;6.018;2023-08-06T19:05:58;17.00;41.80
74155;DHT22;62509;46.248;6.018;2023-08-06T19:11:07;16.70;42.90
74155;DHT22;62509;46.248;6.018;2023-08-06T19:16:10;16.70;42.30
74155;DHT22;62509;46.248;6.018;2023-08-06T19:21:14;16.70;41.50
74155;DHT22;62509;46.248;6.018;2023-08-06T19:26:18;16.50;42.00
74155;DHT22;62509;46.248;6.018;2023-08-06T19:31:21;16.50;43.20
74155;DHT22;62509;46.248;6.018;2023-08-06T19:36:25;16.20;48.90
74155;DHT22;62509;46.248;6.018;2023-08-06T19:41:29;16.20;44.90
74155;DHT22;62509;46.248;6.018;2023-08-06T19:46:33;16.00;46.30
74155;DHT22;62509;46.248;6.018;2023-08-06T19:51:36;16.00;49.50
74155;DHT22;62509;46.248;6.018;2023-08-06T19:56:43;16.00;45.20
74155;DHT22;62509;46.248;6.018;2023-08-06T20:01:46;15.90;43.30
74155;DHT22;62509;46.248;6.018;2023-08-06T20:06:52;15.90;45.30
74155;DHT22;62509;46.248;6.018;2023-08-06T20:11:57;15.70;46.80
74155;DHT22;62509;46.248;6.018;2023-08-06T20:17:00;15.70;46.10
74155;DHT22;62509;46.248;6.018;2023-08-06T20:22:03;15.70;46.20
74155;DHT22;62509;46.248;6.018;2023-08-06T20:27:08;15.80;46.80
74155;DHT22;62509;46.248;6.018;2023-08-06T20:32:11;15.60;49.00
74155;DHT22;62509;46.248;6.018;2023-08-06T20:37:15;15.70;49.00
74155;DHT22;62509;46.248;6.018;2023-08-06T20:42:20;15.60;49.50
74155;DHT22;62509;46.248;6.018;2023-08-06T20:47:23;15.40;51.10
74155;DHT22;62509;46.248;6.018;2023-08-06T20:52:27;15.50;50.40
74155;DHT22;62509;46.248;6.018;2023-08-06T20:57:32;15.50;51.30
74155;DHT22;62509;46.248;6.018;2023-08-06T21:02:35;15.40;51.00
74155;DHT22;62509;46.248;6.018;2023-08-06T21:07:38;15.30;51.60
74155;DHT22;62509;46.248;6.018;2023-08-06T21:12:43;15.20;53.00
74155;DHT22;62509;46.248;6.018;2023-08-06T21:17:47;15.10;53.60
74155;DHT22;62509;46.248;6.018;2023-08-06T21:22:50;14.90;53.90
74155;DHT22;62509;46.248;6.018;2023-08-06T21:27:55;14.80;55.60
74155;DHT22;62509;46.248;6.018;2023-08-06T21:32:59;14.90;56.20
74155;DHT22;62509;46.248;6.018;2023-08-06T21:38:02;14.80;57.70
74155;DHT22;62509;46.248;6.018;2023-08-06T21:43:07;14.70;58.50
74155;DHT22;62509;46.248;6.018;2023-08-06T21:48:10;14.60;58.90
74155;DHT22;62509;46.248;6.018;2023-08-06T21:53:13;14.60;59.00
74155;DHT22;62509;46.248;6.018;2023-08-06T21:58:18;14.60;59.30
74155;DHT22;62509;46.248;6.018;2023-08-06T22:03:21;14.40;60.00
74155;DHT22;62509;46.248;6.018;2023-08-06T22:08:25;14.20;61.00
74155;DHT22;62509;46.248;6.018;2023-08-06T22:13:30;14.20;61.70
74155;DHT22;62509;46.248;6.018;2023-08-06T22:18:33;14.00;63.20
74155;DHT22;62509;46.248;6.018;2023-08-06T22:23:36;14.00;63.30
74155;DHT22;62509;46.248;6.018;2023-08-06T22:28:41;14.10;62.10
74155;DHT22;62509;46.248;6.018;2023-08-06T22:34:00;14.00;61.20
74155;DHT22;62509;46.248;6.018;2023-08-06T22:39:03;14.10;60.80
74155;DHT22;62509;46.248;6.018;2023-08-06T22:44:08;14.00;61.70
74155;DHT22;62509;46.248;6.018;2023-08-06T22:49:11;14.10;61.30
74155;DHT22;62509;46.248;6.018;2023-08-06T22:54:15;14.20;62.30
74155;DHT22;62509;46.248;6.018;2023-08-06T22:59:20;14.10;63.10
74155;DHT22;62509;46.248;6.018;2023-08-06T23:04:23;14.20;62.10
74155;DHT22;62509;46.248;6.018;2023-08-06T23:09:26;14.00;63.80
74155;DHT22;62509;46.248;6.018;2023-08-06T23:14:31;14.00;64.50
74155;DHT22;62509;46.248;6.018;2023-08-06T23:19:34;14.10;62.80
74155;DHT22;62509;46.248;6.018;2023-08-06T23:24:37;14.20;59.90
74155;DHT22;62509;46.248;6.018;2023-08-06T23:29:42;14.20;61.80
74155;DHT22;62509;46.248;6.018;2023-08-06T23:34:45;14.10;62.20
74155;DHT22;62509;46.248;6.018;2023-08-06T23:39:54;13.90;61.00
74155;DHT22;62509;46.248;6.018;2023-08-06T23:44:59;14.00;61.30
74155;DHT22;62509;46.248;6.018;2023-08-06T23:50:03;14.20;62.20
74155;DHT22;62509;46.248;6.018;2023-08-06T23:55:07;14.30;62.00
